Time;durP1;ratioP1;P1;durP2;ratioP2;P2;SDS_P1;SDS_P2;PMS_P1;PMS_P2;Temp;Humidity;BMP_temperature;BMP_pressure;BME280_temperature;BME280_humidity;BME280_pressure;Samples;Min_cycle;Max_cycle;Signal;HPM_P1;HPM_P2
2023/04/28 00:01:27;;;;;;;3.9;2.4;;;;;;;8.44;94.70605;937.7142;;;;
2023/04/28 00:03:56;;;;;;;3.5;2.1;;;;;;;8.5;94.36426;937.6858;;;;
2023/04/28 00:06:20;;;;;;;5.2;2.7;;;;;;;8.5;94.23926;937.762;;;;
2023/04/28 00:08:45;;;;;;;5.6;2.4;;;;;;;8.42;94.62109;937.7067;;;;
2023/04/28 00:11:10;;;;;;;4.1;2.2;;;;;;;8.45;94.50391;937.6573;;;;
2023/04/28 00:13:37;;;;;;;3;2.2;;;;;;;8.41;94.95996;937.6725;;;;
2023/04/28 00:16:03;;;;;;;2.5;1.8;;;;;;;8.53;94.6582;937.6412;;;;
2023/04/28 00:18:32;;;;;;;4.4;2.5;;;;;;;8.66;93.75391;937.5808;;;;
2023/04/28 00:20:55;;;;;;;5.4;2.5;;;;;;;8.65;93.67188;937.6108;;;;
2023/04/28 00:23:21;;;;;;;4;2.3;;;;;;;8.65;93.77441;937.5901;;;;
2023/04/28 00:25:46;;;;;;;4.6;2.5;;;;;;;8.8;93.21484;937.5328;;;;
2023/04/28 00:28:14;;;;;;;35.5;19.6;;;;;;;8.71;93.29688;937.6005;;;;
2023/04/28 00:30:39;;;;;;;4.6;3.1;;;;;;;8.75;93.07813;937.5638;;;;
2023/04/28 00:33:05;;;;;;;3.2;2;;;;;;;8.82;92.82031;937.5198;;;;
2023/04/28 00:35:30;;;;;;;2.2;1.7;;;;;;;8.86;92.52148;937.5656;;;;
2023/04/28 00:37:59;;;;;;;2.6;2.2;;;;;;;8.88;92.18555;937.5303;;;;
2023/04/28 00:40:27;;;;;;;3.6;1.8;;;;;;;8.81;92.11133;937.4813;;;;
2023/04/28 00:42:52;;;;;;;2.2;2;;;;;;;8.74;92.78223;937.5645;;;;
2023/04/28 00:45:19;;;;;;;2.2;1.7;;;;;;;8.78;92.70801;937.5444;;;;
2023/04/28 00:47:44;;;;;;;2.4;2.2;;;;;;;8.76;92.75;937.4781;;;;
2023/04/28 00:50:12;;;;;;;2.4;1.8;;;;;;;8.73;92.91504;937.4302;;;;
2023/04/28 00:52:37;;;;;;;2.6;1.9;;;;;;;8.59;93.44238;937.5016;;;;
2023/04/28 00:55:04;;;;;;;2.1;1.9;;;;;;;8.66;93.5127;937.4846;;;;
2023/04/28 00:57:35;;;;;;;2.8;1.9;;;;;;;8.64;93.98633;937.47;;;;
2023/04/28 01:00:05;;;;;;;2.9;1.8;;;;;;;8.71;93.78418;937.4242;;;;
2023/04/28 01:02:37;;;;;;;2.3;1.8;;;;;;;8.7;93.59082;937.4106;;;;
2023/04/28 01:05:03;;;;;;;3.5;1.8;;;;;;;8.56;94.30078;937.2892;;;;
2023/04/28 01:07:28;;;;;;;1.8;1.7;;;;;;;8.56;94.24316;937.2575;;;;
2023/04/28 01:09:55;;;;;;;2.6;1.8;;;;;;;8.52;94.5293;937.1592;;;;
2023/04/28 01:12:20;;;;;;;1.9;1.6;;;;;;;8.59;94.14746;937.1333;;;;
2023/04/28 01:14:46;;;;;;;2.2;1.7;;;;;;;8.79;93.47461;937.1763;;;;
2023/04/28 01:17:11;;;;;;;2;1.6;;;;;;;8.89;91.82227;937.1532;;;;
2023/04/28 01:19:36;;;;;;;2.3;1.5;;;;;;;9.03;91.05566;937.0974;;;;
2023/04/28 01:22:03;;;;;;;1.8;1.5;;;;;;;9.18;89.21094;937.1534;;;;
2023/04/28 01:24:28;;;;;;;3;1.5;;;;;;;9.19;89.33789;937.1035;;;;
2023/04/28 01:26:53;;;;;;;1.4;1.3;;;;;;;9.41;88.58691;937.1052;;;;
2023/04/28 01:29:18;;;;;;;1.6;1.4;;;;;;;9.51;87.75293;937.0578;;;;
2023/04/28 01:31:46;;;;;;;2.2;1.5;;;;;;;9.56;87.79688;937.0679;;;;
2023/04/28 01:34:11;;;;;;;2.1;1.6;;;;;;;9.21;89.89941;937.1311;;;;
2023/04/28 01:36:38;;;;;;;2;1.8;;;;;;;9.09;90.79785;937.1213;;;;
2023/04/28 01:39:03;;;;;;;11.3;8.2;;;;;;;9.17;90.57422;937.0977;;;;
2023/04/28 01:41:33;;;;;;;2;1.8;;;;;;;9.1;91.10547;937.057;;;;
2023/04/28 01:43:56;;;;;;;1.9;1.8;;;;;;;8.98;91.71777;937.0648;;;;
2023/04/28 01:46:24;;;;;;;6;5.5;;;;;;;8.92;92.43457;937.033;;;;
2023/04/28 01:48:49;;;;;;;2.2;2;;;;;;;8.88;92.7207;937.1079;;;;
2023/04/28 01:51:15;;;;;;;2.9;1.8;;;;;;;8.92;92.75098;937.218;;;;
2023/04/28 01:53:40;;;;;;;3.2;1.9;;;;;;;8.93;92.69629;937.3809;;;;
2023/04/28 01:56:08;;;;;;;4;2.2;;;;;;;9.09;92.43652;937.312;;;;
2023/04/28 01:58:36;;;;;;;2.6;2.1;;;;;;;9.03;92.53711;937.3731;;;;
2023/04/28 02:01:02;;;;;;;3;2.3;;;;;;;9.04;92.14063;937.5083;;;;
2023/04/28 02:03:30;;;;;;;2.8;1.8;;;;;;;9.03;92.39844;937.5056;;;;
2023/04/28 02:05:56;;;;;;;2.6;1.8;;;;;;;9.09;92.1709;937.4508;;;;
2023/04/28 02:08:23;;;;;;;3.5;1.8;;;;;;;9.21;91.81152;937.4631;;;;
2023/04/28 02:10:48;;;;;;;1.6;1.5;;;;;;;9.04;92.86914;937.4439;;;;
2023/04/28 02:13:15;;;;;;;2;1.7;;;;;;;9.2;92.41309;937.2371;;;;
2023/04/28 02:15:40;;;;;;;4;2;;;;;;;9.17;92.3252;937.2001;;;;
2023/04/28 02:18:06;;;;;;;2.3;1.7;;;;;;;9.08;93.85547;937.1234;;;;
2023/04/28 02:20:31;;;;;;;1.8;1.7;;;;;;;9.03;94.44824;937.0808;;;;
2023/04/28 02:22:58;;;;;;;1.9;1.6;;;;;;;9.09;94.4375;936.8997;;;;
2023/04/28 02:25:23;;;;;;;3;1.8;;;;;;;9.12;94.55957;936.9286;;;;
2023/04/28 02:27:50;;;;;;;1.6;1.5;;;;;;;9.17;94.4541;936.957;;;;
2023/04/28 02:30:15;;;;;;;2.2;1.7;;;;;;;9.21;94.45215;936.9623;;;;
2023/04/28 02:32:42;;;;;;;2.3;1.5;;;;;;;9.27;94.12402;936.9864;;;;
2023/04/28 02:35:07;;;;;;;2.4;1.6;;;;;;;9.35;94.14258;936.9802;;;;
2023/04/28 02:37:35;;;;;;;2.5;1.6;;;;;;;9.33;93.55762;936.8861;;;;
2023/04/28 02:40:00;;;;;;;2.9;1.9;;;;;;;9.63;89.77148;936.8091;;;;
2023/04/28 02:42:28;;;;;;;4.4;1.9;;;;;;;9.73;88.48145;936.7106;;;;
2023/04/28 02:44:53;;;;;;;1.6;1.5;;;;;;;9.75;87.43848;936.6448;;;;
2023/04/28 02:47:21;;;;;;;2;1.5;;;;;;;9.73;89.2334;936.6613;;;;
2023/04/28 02:49:46;;;;;;;1.5;1.4;;;;;;;9.84;87.21484;936.4575;;;;
2023/04/28 02:52:13;;;;;;;2.2;1.5;;;;;;;9.85;87.24023;936.5005;;;;
2023/04/28 02:54:38;;;;;;;2.7;1.6;;;;;;;9.91;87.11621;936.4391;;;;
2023/04/28 02:57:04;;;;;;;1.6;1.5;;;;;;;10.01;86.95313;936.4514;;;;
2023/04/28 02:59:29;;;;;;;1.4;1.3;;;;;;;9.85;88.4502;936.4672;;;;
2023/04/28 03:01:56;;;;;;;2;1.8;;;;;;;9.48;90.97168;936.517;;;;
2023/04/28 03:04:21;;;;;;;2.3;1.6;;;;;;;9.23;92.64844;936.4847;;;;
2023/04/28 03:06:48;;;;;;;2;1.8;;;;;;;9.19;92.96875;936.4537;;;;
2023/04/28 03:09:13;;;;;;;3.3;1.5;;;;;;;9.06;93.78125;936.5275;;;;
2023/04/28 03:11:38;;;;;;;2.3;1.8;;;;;;;9.01;94.29492;936.5453;;;;
2023/04/28 03:14:03;;;;;;;2;1.7;;;;;;;8.91;95.11328;936.4753;;;;
2023/04/28 03:16:32;;;;;;;1.9;1.6;;;;;;;8.88;95.43848;936.4179;;;;
2023/04/28 03:18:58;;;;;;;1.9;1.7;;;;;;;8.86;95.50098;936.4978;;;;
2023/04/28 03:21:25;;;;;;;2;1.8;;;;;;;8.81;95.95898;936.4266;;;;
2023/04/28 03:23:50;;;;;;;2.4;1.7;;;;;;;8.98;95.19922;936.4359;;;;
2023/04/28 03:26:16;;;;;;;2.9;1.6;;;;;;;9.04;94.72363;936.4305;;;;
2023/04/28 03:28:41;;;;;;;2.7;1.9;;;;;;;9.07;94.49121;936.4252;;;;
2023/04/28 03:31:07;;;;;;;3.9;2.3;;;;;;;9.11;94.39648;936.3184;;;;
2023/04/28 03:33:32;;;;;;;2.9;2.1;;;;;;;9.18;94.07031;936.312;;;;
2023/04/28 03:35:57;;;;;;;3;2;;;;;;;9.17;94.0918;936.3002;;;;
2023/04/28 03:38:23;;;;;;;2.7;1.6;;;;;;;9.29;93.57031;936.2891;;;;
2023/04/28 03:40:48;;;;;;;2.2;1.9;;;;;;;9.38;92.91992;936.2837;;;;
2023/04/28 03:43:16;;;;;;;2.3;1.6;;;;;;;9.43;92.39453;936.2924;;;;
2023/04/28 03:45:41;;;;;;;2.3;1.6;;;;;;;9.24;92.45508;936.259;;;;
2023/04/28 03:48:08;;;;;;;1.9;1.7;;;;;;;9.35;92.38867;936.2928;;;;
2023/04/28 03:50:34;;;;;;;3.1;2.2;;;;;;;9.25;92.07129;936.2886;;;;
2023/04/28 03:52:59;;;;;;;2.4;2.2;;;;;;;9.12;93.13672;936.2686;;;;
2023/04/28 03:55:25;;;;;;;2.1;1.8;;;;;;;9.15;92.88281;936.2737;;;;
2023/04/28 03:57:51;;;;;;;2.3;1.8;;;;;;;9.27;92.53027;936.3611;;;;
2023/04/28 04:02:33;;;;;;;1.8;1.7;;;;;;;9.39;92.05469;936.3394;;;;
2023/04/28 04:05:04;;;;;;;3.6;1.9;;;;;;;9.39;91.81543;936.3744;;;;
2023/04/28 04:07:29;;;;;;;2.8;1.7;;;;;;;9.35;92.25195;936.389;;;;
2023/04/28 04:09:56;;;;;;;1.6;1.5;;;;;;;9.42;91.60742;936.433;;;;
2023/04/28 04:12:22;;;;;;;1.8;1.6;;;;;;;9.35;91.97656;936.4851;;;;
2023/04/28 04:14:48;;;;;;;3.2;1.9;;;;;;;9.31;91.62988;936.4116;;;;
2023/04/28 04:17:13;;;;;;;2.7;2.1;;;;;;;9.29;92.06738;936.4797;;;;
2023/04/28 04:19:40;;;;;;;3;1.9;;;;;;;9.17;92.39551;936.6019;;;;
2023/04/28 04:22:05;;;;;;;3.3;2.7;;;;;;;9.15;92.98535;936.5517;;;;
2023/04/28 04:24:30;;;;;;;3.2;2.1;;;;;;;9.3;92.44531;936.5648;;;;
2023/04/28 04:26:55;;;;;;;1.9;1.7;;;;;;;9.43;92.03027;936.5522;;;;
2023/04/28 04:29:20;;;;;;;4;2.2;;;;;;;9.51;91.69434;936.5483;;;;
2023/04/28 04:31:48;;;;;;;5.1;3.6;;;;;;;9.66;91.31543;936.5652;;;;
2023/04/28 04:34:12;;;;;;;5.5;5;;;;;;;9.59;91.14258;936.5825;;;;
2023/04/28 04:36:39;;;;;;;3.5;2.2;;;;;;;9.59;91.17676;936.5849;;;;
2023/04/28 04:39:04;;;;;;;3;2.3;;;;;;;9.69;90.83105;936.4908;;;;
2023/04/28 04:41:30;;;;;;;3.5;2.2;;;;;;;9.72;90.84961;936.5731;;;;
2023/04/28 04:43:55;;;;;;;2.1;1.9;;;;;;;9.7;90.77734;936.5911;;;;
2023/04/28 04:46:23;;;;;;;5;2.6;;;;;;;9.74;90.81934;936.5463;;;;
2023/04/28 04:48:49;;;;;;;3.5;1.9;;;;;;;9.84;90.37305;936.7079;;;;
2023/04/28 04:51:15;;;;;;;3.5;1.9;;;;;;;10.01;90.04395;936.6841;;;;
2023/04/28 04:53:41;;;;;;;5.5;2.4;;;;;;;10.12;89.66699;936.7434;;;;
2023/04/28 04:56:07;;;;;;;2.4;2;;;;;;;10.16;89.37988;936.8647;;;;
2023/04/28 04:58:32;;;;;;;3.2;2.4;;;;;;;10.09;89.76465;936.8474;;;;
2023/04/28 05:01:00;;;;;;;2.4;2.2;;;;;;;10.16;89.49414;936.8766;;;;
2023/04/28 05:03:25;;;;;;;4.6;2.4;;;;;;;10.22;89.56445;936.9963;;;;
2023/04/28 05:05:52;;;;;;;4;2.2;;;;;;;10.2;89.35352;937.033;;;;
2023/04/28 05:08:17;;;;;;;3.6;2.3;;;;;;;10.03;91.42773;937.134;;;;
2023/04/28 05:10:45;;;;;;;3;2.1;;;;;;;10;91.90039;937.2202;;;;
2023/04/28 05:13:10;;;;;;;3.6;2.2;;;;;;;9.95;92.39063;937.2562;;;;
2023/04/28 05:15:42;;;;;;;2.2;2;;;;;;;9.93;93.0127;937.2711;;;;
2023/04/28 05:18:12;;;;;;;3.3;2.6;;;;;;;9.94;92.82422;937.3699;;;;
2023/04/28 05:20:40;;;;;;;3.7;2.2;;;;;;;9.82;94.00488;937.3583;;;;
2023/04/28 05:23:05;;;;;;;3.6;2.8;;;;;;;9.79;94.63574;937.3736;;;;
2023/04/28 05:25:33;;;;;;;5.6;3.6;;;;;;;9.78;95.27246;937.2589;;;;
2023/04/28 05:28:01;;;;;;;5.2;3.4;;;;;;;9.8;95.27637;937.4111;;;;
2023/04/28 05:30:23;;;;;;;6.5;3.3;;;;;;;9.93;95.63477;937.2791;;;;
2023/04/28 05:32:49;;;;;;;5.3;4.2;;;;;;;9.84;96.65625;937.353;;;;
2023/04/28 05:35:15;;;;;;;5.5;3.3;;;;;;;9.81;97.55957;937.4048;;;;
2023/04/28 05:37:43;;;;;;;6.2;3.6;;;;;;;9.84;96.88184;937.3139;;;;
2023/04/28 05:40:07;;;;;;;5.6;3.6;;;;;;;9.81;96.95605;937.3853;;;;
2023/04/28 05:42:34;;;;;;;3.7;3.2;;;;;;;9.78;97.0293;937.4411;;;;
2023/04/28 05:44:59;;;;;;;4;2.4;;;;;;;9.85;95.4707;937.3347;;;;
2023/04/28 05:47:29;;;;;;;4.2;2.6;;;;;;;9.94;94.57813;937.463;;;;
2023/04/28 05:49:54;;;;;;;2;1.8;;;;;;;9.96;94.81055;937.4409;;;;
2023/04/28 05:52:21;;;;;;;4.3;2.2;;;;;;;9.89;96.74609;937.5045;;;;
2023/04/28 05:54:47;;;;;;;3.8;1.9;;;;;;;9.86;94.96094;937.5059;;;;
2023/04/28 05:57:14;;;;;;;2.7;2;;;;;;;9.97;96.44434;937.4576;;;;
2023/04/28 05:59:39;;;;;;;2.9;2.1;;;;;;;10.01;96.72852;937.3749;;;;
2023/04/28 06:02:08;;;;;;;4.7;3.4;;;;;;;9.92;99.16895;937.528;;;;
2023/04/28 06:04:33;;;;;;;5.1;3.1;;;;;;;9.97;98.88477;937.5078;;;;
2023/04/28 06:07:00;;;;;;;4.2;2.6;;;;;;;10.02;98.9541;937.546;;;;
2023/04/28 06:09:26;;;;;;;3.4;2.2;;;;;;;9.98;98.98926;937.5883;;;;
2023/04/28 06:11:54;;;;;;;5.4;3.7;;;;;;;9.82;98.29102;937.6414;;;;
2023/04/28 06:14:19;;;;;;;4.8;2.6;;;;;;;9.95;98.14941;937.6476;;;;
2023/04/28 06:16:45;;;;;;;4;2.8;;;;;;;10.08;98.30566;937.666;;;;
2023/04/28 06:19:10;;;;;;;3.9;2.4;;;;;;;10.22;97.83398;937.6241;;;;
2023/04/28 06:21:38;;;;;;;2.8;2.5;;;;;;;10.33;97.16211;937.5336;;;;
2023/04/28 06:24:03;;;;;;;3.8;2.6;;;;;;;10.36;96.16602;937.5092;;;;
2023/04/28 06:26:30;;;;;;;5;2.3;;;;;;;10.47;96.03027;937.5773;;;;
2023/04/28 06:28:55;;;;;;;4.4;2.7;;;;;;;10.47;96.81641;937.574;;;;
2023/04/28 06:31:22;;;;;;;3.4;2.4;;;;;;;10.5;96.77832;937.6309;;;;
2023/04/28 06:33:47;;;;;;;4.3;2.8;;;;;;;10.59;97.02734;937.5726;;;;
2023/04/28 06:36:16;;;;;;;2.5;2.2;;;;;;;10.65;96.8584;937.5703;;;;
2023/04/28 06:38:39;;;;;;;3.7;2.2;;;;;;;10.58;97.16406;937.5837;;;;
2023/04/28 06:41:08;;;;;;;3.3;2;;;;;;;10.65;96.67773;937.5457;;;;
2023/04/28 06:43:34;;;;;;;2.5;2.2;;;;;;;10.65;96.51563;937.5449;;;;
2023/04/28 06:46:01;;;;;;;3.4;2.2;;;;;;;10.59;97.54297;937.5513;;;;
2023/04/28 06:48:26;;;;;;;4.8;2.4;;;;;;;10.57;97.55762;937.5486;;;;
2023/04/28 06:50:54;;;;;;;4.2;2.1;;;;;;;10.64;97.65625;937.5377;;;;
2023/04/28 06:53:19;;;;;;;7.7;5.2;;;;;;;10.6;97.7373;937.5162;;;;
2023/04/28 06:55:44;;;;;;;9.1;4.9;;;;;;;10.6;97.50879;937.4589;;;;
2023/04/28 06:58:10;;;;;;;6.8;4;;;;;;;10.65;97.40723;937.4573;;;;
2023/04/28 07:00:37;;;;;;;6;3.9;;;;;;;10.62;97.26367;937.4769;;;;
2023/04/28 07:03:02;;;;;;;4.9;3.6;;;;;;;10.67;97.90234;937.3754;;;;
2023/04/28 07:05:30;;;;;;;6.1;4.3;;;;;;;10.79;97.40332;937.428;;;;
2023/04/28 07:07:58;;;;;;;7.8;5.7;;;;;;;10.78;97.89258;937.4271;;;;
2023/04/28 07:10:23;;;;;;;10.5;5.9;;;;;;;10.86;98.00195;937.4192;;;;
2023/04/28 07:12:51;;;;;;;14;12.6;;;;;;;10.8;98.18164;937.4265;;;;
2023/04/28 07:15:16;;;;;;;9;6.6;;;;;;;10.85;97.54297;937.42;;;;
2023/04/28 07:17:45;;;;;;;4.5;3.7;;;;;;;10.61;97.02148;937.4545;;;;
2023/04/28 07:20:10;;;;;;;3.6;2.6;;;;;;;10.58;97.29004;937.4325;;;;
2023/04/28 07:22:37;;;;;;;3.6;1.9;;;;;;;10.49;96.55957;937.4326;;;;
2023/04/28 07:25:03;;;;;;;3.1;2.1;;;;;;;10.47;97.62695;937.442;;;;
2023/04/28 07:27:27;;;;;;;3.4;1.9;;;;;;;10.32;97.61914;937.2988;;;;
2023/04/28 07:29:54;;;;;;;2.4;2.2;;;;;;;10.32;97.55078;937.3425;;;;
2023/04/28 07:32:19;;;;;;;3.5;2;;;;;;;10.34;98.39746;937.3228;;;;
2023/04/28 07:34:46;;;;;;;3.4;1.9;;;;;;;10.32;97.65137;937.3409;;;;
2023/04/28 07:37:12;;;;;;;1.5;1.3;;;;;;;10.37;97.28711;937.2379;;;;
2023/04/28 07:39:41;;;;;;;2.4;1.2;;;;;;;10.21;97.37598;937.1415;;;;
2023/04/28 07:42:07;;;;;;;1.7;1.5;;;;;;;10.17;98.83691;937.1091;;;;
2023/04/28 07:44:34;;;;;;;2.8;1.6;;;;;;;10.2;99.17578;937.1555;;;;
2023/04/28 07:46:59;;;;;;;2.3;1.4;;;;;;;10.22;98.95215;937.1498;;;;
2023/04/28 07:49:27;;;;;;;3.8;1.7;;;;;;;10.24;99.81445;937.1309;;;;
2023/04/28 07:51:54;;;;;;;2.3;1.8;;;;;;;10.23;99.87891;937.2025;;;;
2023/04/28 07:54:20;;;;;;;1.8;1.5;;;;;;;10.34;99.78906;937.1875;;;;
2023/04/28 07:56:45;;;;;;;2.6;1.8;;;;;;;10.49;97.90723;937.0687;;;;
2023/04/28 07:59:14;;;;;;;1.6;1.5;;;;;;;10.45;98.19531;937.2062;;;;
2023/04/28 08:01:39;;;;;;;1.4;1.3;;;;;;;10.44;97.91992;937.1488;;;;
2023/04/28 08:04:05;;;;;;;2;1.2;;;;;;;10.39;96.86816;937.152;;;;
2023/04/28 08:06:31;;;;;;;1.8;1.3;;;;;;;10.44;96.62988;937.1425;;;;
2023/04/28 08:08:59;;;;;;;1.5;1.4;;;;;;;10.59;96.70703;937.079;;;;
2023/04/28 08:11:24;;;;;;;2.2;1.6;;;;;;;10.66;95.87891;937.0728;;;;
2023/04/28 08:13:51;;;;;;;1.8;1.4;;;;;;;10.6;95.06543;937.0282;;;;
2023/04/28 08:16:16;;;;;;;2.3;1.2;;;;;;;10.61;95.83203;937.0283;;;;
2023/04/28 08:18:44;;;;;;;2.2;2;;;;;;;10.65;95.84473;936.923;;;;
2023/04/28 08:21:08;;;;;;;1.5;1;;;;;;;10.67;95.0127;936.9764;;;;
2023/04/28 08:23:35;;;;;;;3.9;1.5;;;;;;;10.71;95.68262;937.0189;;;;
2023/04/28 08:26:00;;;;;;;2.2;1.5;;;;;;;10.7;95.0752;936.9495;;;;
2023/04/28 08:28:28;;;;;;;1.2;1.1;;;;;;;10.74;95.61133;937.0286;;;;
2023/04/28 08:30:54;;;;;;;2;1.2;;;;;;;10.64;94.46777;937.0312;;;;
2023/04/28 08:33:22;;;;;;;1.6;1.5;;;;;;;10.72;94.29102;937.0428;;;;
2023/04/28 08:35:46;;;;;;;1.9;1.1;;;;;;;10.74;95.94238;936.9594;;;;
2023/04/28 08:38:16;;;;;;;1;0.9;;;;;;;10.79;95.38086;936.9517;;;;
2023/04/28 08:40:39;;;;;;;2.2;1.6;;;;;;;10.74;95.42773;936.8781;;;;
2023/04/28 08:43:05;;;;;;;2.6;1.9;;;;;;;10.76;94.71289;936.8767;;;;
2023/04/28 08:45:31;;;;;;;3.4;2.9;;;;;;;10.81;95.38672;936.8308;;;;
2023/04/28 08:47:55;;;;;;;1.7;1.4;;;;;;;10.83;95.00293;936.875;;;;
2023/04/28 08:50:21;;;;;;;1.7;1.2;;;;;;;10.7;94.92871;936.8381;;;;
2023/04/28 08:52:46;;;;;;;0.9;0.9;;;;;;;10.62;95.60547;936.7563;;;;
2023/04/28 08:55:11;;;;;;;1.2;1;;;;;;;10.7;94.75781;936.7433;;;;
2023/04/28 08:57:37;;;;;;;1.1;1;;;;;;;10.81;95.00977;936.7042;;;;
2023/04/28 09:00:06;;;;;;;3.9;1.8;;;;;;;11.03;95.2998;936.7147;;;;
2023/04/28 09:02:40;;;;;;;1.9;1.4;;;;;;;11.17;93.44043;936.8069;;;;
2023/04/28 09:05:09;;;;;;;2.7;1.4;;;;;;;11.26;91.20703;936.842;;;;
2023/04/28 09:07:34;;;;;;;3.4;2.1;;;;;;;11.33;91.00488;936.8024;;;;
2023/04/28 09:10:02;;;;;;;2.6;1.8;;;;;;;11.41;91.62891;936.8345;;;;
2023/04/28 09:12:27;;;;;;;1.2;1;;;;;;;11.37;90.98047;936.8528;;;;
2023/04/28 09:14:52;;;;;;;2.1;1.5;;;;;;;11.53;92.51367;936.9094;;;;
2023/04/28 09:17:18;;;;;;;2.2;1.6;;;;;;;11.65;91.11719;936.9213;;;;
2023/04/28 09:19:43;;;;;;;1.6;1.5;;;;;;;11.87;91.54297;936.9551;;;;
2023/04/28 09:22:10;;;;;;;1.1;1;;;;;;;11.99;88.65723;936.9434;;;;
2023/04/28 09:24:35;;;;;;;1.2;1;;;;;;;12.1;88.83008;936.9678;;;;
2023/04/28 09:27:06;;;;;;;1.2;1.1;;;;;;;12.15;88.46191;936.9559;;;;
2023/04/28 09:29:29;;;;;;;2.1;1.9;;;;;;;11.92;88.88379;937.0255;;;;
2023/04/28 09:31:56;;;;;;;3;2.1;;;;;;;11.77;88.26953;936.8858;;;;
2023/04/28 09:34:21;;;;;;;1.9;1.4;;;;;;;11.85;88.91602;936.9359;;;;
2023/04/28 09:36:46;;;;;;;4;2.7;;;;;;;11.97;89.54785;936.89;;;;
2023/04/28 09:39:13;;;;;;;6.5;4;;;;;;;11.99;91.01758;936.8947;;;;
2023/04/28 09:41:39;;;;;;;6.4;3.1;;;;;;;11.99;92.11719;936.8756;;;;
2023/04/28 09:44:06;;;;;;;5.4;3.1;;;;;;;12.09;92.82617;936.9462;;;;
2023/04/28 09:46:31;;;;;;;2.3;1.8;;;;;;;12.1;92.87598;936.9871;;;;
2023/04/28 09:48:59;;;;;;;3.1;2.3;;;;;;;12.07;93.09668;937.0157;;;;
2023/04/28 09:51:24;;;;;;;5.9;2.7;;;;;;;12;93.11816;936.9961;;;;
2023/04/28 09:53:51;;;;;;;2.8;1.3;;;;;;;11.72;88.94531;936.991;;;;
2023/04/28 09:56:18;;;;;;;1.9;1.6;;;;;;;11.71;91.70508;936.9893;;;;
2023/04/28 09:58:44;;;;;;;3.4;1.4;;;;;;;11.64;91.84961;936.8647;;;;
2023/04/28 10:01:10;;;;;;;1.7;1.3;;;;;;;11.68;91.44531;936.8576;;;;
2023/04/28 10:03:37;;;;;;;1.7;1.3;;;;;;;11.55;90.99512;936.7723;;;;
2023/04/28 10:06:03;;;;;;;1.5;1.1;;;;;;;11.48;87.62695;936.7601;;;;
2023/04/28 10:08:31;;;;;;;1.2;1.1;;;;;;;11.51;87.1748;936.8201;;;;
2023/04/28 10:10:56;;;;;;;1.1;0.7;;;;;;;11.47;88.3125;936.9172;;;;
2023/04/28 10:13:23;;;;;;;0.8;0.8;;;;;;;11.29;88.89258;936.9537;;;;
2023/04/28 10:15:48;;;;;;;0.7;0.6;;;;;;;11.27;90.18164;936.8859;;;;
2023/04/28 10:18:16;;;;;;;1.2;0.8;;;;;;;11.25;89.46875;936.9702;;;;
2023/04/28 10:20:41;;;;;;;1.3;1.2;;;;;;;11.26;90.56836;937.0851;;;;
2023/04/28 10:23:06;;;;;;;1.2;1;;;;;;;11.32;90.44238;937.0375;;;;
2023/04/28 10:25:31;;;;;;;0.9;0.9;;;;;;;11.48;91.03711;936.9659;;;;
2023/04/28 10:27:56;;;;;;;1;0.9;;;;;;;11.56;92.12793;937.0323;;;;
2023/04/28 10:30:24;;;;;;;0.9;0.9;;;;;;;11.69;90.47656;937.0403;;;;
2023/04/28 10:32:49;;;;;;;0.9;0.8;;;;;;;11.85;91.07129;937.0277;;;;
2023/04/28 10:35:17;;;;;;;2.5;0.9;;;;;;;11.61;89.8623;937.0703;;;;
2023/04/28 10:37:42;;;;;;;2.6;0.8;;;;;;;11.43;91.62109;937.0797;;;;
2023/04/28 10:40:07;;;;;;;0.9;0.7;;;;;;;11.56;92.08398;937.1138;;;;
2023/04/28 10:42:33;;;;;;;1.1;1;;;;;;;11.6;91.46289;937.0294;;;;
2023/04/28 10:45:01;;;;;;;1.4;1.1;;;;;;;11.55;92.96387;936.9008;;;;
2023/04/28 10:47:25;;;;;;;1.3;1.2;;;;;;;11.51;92.24219;936.9133;;;;
2023/04/28 10:49:53;;;;;;;1.9;1.3;;;;;;;11.52;92.38379;936.8719;;;;
2023/04/28 10:52:19;;;;;;;1.3;1.1;;;;;;;11.61;92.40332;936.8008;;;;
2023/04/28 10:54:44;;;;;;;1.8;1.6;;;;;;;11.71;92.37891;936.7875;;;;
2023/04/28 10:57:15;;;;;;;6.2;3.8;;;;;;;12.04;92.03711;936.801;;;;
2023/04/28 10:59:40;;;;;;;9.9;5.4;;;;;;;12.27;91.58105;936.7495;;;;
2023/04/28 11:02:11;;;;;;;2.5;1.5;;;;;;;12.45;90.3252;936.6939;;;;
2023/04/28 11:04:36;;;;;;;4.4;1.5;;;;;;;12.37;90.40918;936.5834;;;;
2023/04/28 11:07:06;;;;;;;2.4;1.9;;;;;;;12.67;91.09277;936.6989;;;;
2023/04/28 11:09:31;;;;;;;1.9;1;;;;;;;12.77;86.95898;936.6987;;;;
2023/04/28 11:11:59;;;;;;;1.2;1.1;;;;;;;12.8;86.74609;936.6395;;;;
2023/04/28 11:14:24;;;;;;;3.3;1.5;;;;;;;13.02;91.7959;936.7156;;;;
2023/04/28 11:16:51;;;;;;;1.6;1.3;;;;;;;13.32;87.50586;936.6969;;;;
2023/04/28 11:19:16;;;;;;;1.4;1.2;;;;;;;13.45;88.3584;936.5726;;;;
2023/04/28 11:21:41;;;;;;;1.9;0.9;;;;;;;13.37;89.50488;936.743;;;;
2023/04/28 11:24:10;;;;;;;1;0.9;;;;;;;13.46;89.93555;936.7271;;;;
2023/04/28 11:26:36;;;;;;;0.8;0.8;;;;;;;13.43;87.9873;936.8111;;;;
2023/04/28 11:29:01;;;;;;;0.9;0.9;;;;;;;13.53;86.68555;936.7778;;;;
2023/04/28 11:31:29;;;;;;;1.1;0.8;;;;;;;13.45;86.37988;936.8214;;;;
2023/04/28 11:33:54;;;;;;;2.4;0.7;;;;;;;13.59;88.68555;936.8768;;;;
2023/04/28 11:36:21;;;;;;;1.1;0.8;;;;;;;13.52;84.63672;936.9059;;;;
2023/04/28 11:38:47;;;;;;;0.6;0.6;;;;;;;13.36;83.3877;936.9678;;;;
2023/04/28 11:41:11;;;;;;;0.7;0.7;;;;;;;13.46;86.65918;936.9197;;;;
2023/04/28 11:43:36;;;;;;;1.3;1.2;;;;;;;13.51;88.06152;936.8571;;;;
2023/04/28 11:46:03;;;;;;;0.8;0.8;;;;;;;13.58;88.01855;936.7913;;;;
2023/04/28 11:48:28;;;;;;;2.2;1.5;;;;;;;13.76;87.49121;936.8338;;;;
2023/04/28 11:50:53;;;;;;;3.1;2.8;;;;;;;13.74;88.86621;936.8691;;;;
2023/04/28 11:53:23;;;;;;;3.2;2.6;;;;;;;13.57;87.09473;936.9545;;;;
2023/04/28 11:55:48;;;;;;;2.9;2.5;;;;;;;13.27;88.54004;936.9266;;;;
2023/04/28 11:58:16;;;;;;;1.8;1.4;;;;;;;13.35;88.2334;936.9438;;;;
2023/04/28 12:00:41;;;;;;;4.5;3.6;;;;;;;13.22;90.73535;936.949;;;;
2023/04/28 12:03:11;;;;;;;4.6;3;;;;;;;13.49;89.9873;936.9036;;;;
2023/04/28 12:05:41;;;;;;;2.6;2.2;;;;;;;13.66;89.09277;937.0864;;;;
2023/04/28 12:08:06;;;;;;;4.2;3.4;;;;;;;13.55;88.88477;937.109;;;;
2023/04/28 12:10:38;;;;;;;8.5;5.4;;;;;;;13.66;88.41211;937.0368;;;;
2023/04/28 12:13:06;;;;;;;1.5;1.3;;;;;;;13.54;88.35449;937.1298;;;;
2023/04/28 12:15:31;;;;;;;4.7;2.7;;;;;;;13.62;88.98926;937.1418;;;;
2023/04/28 12:17:57;;;;;;;2.3;1.5;;;;;;;13.75;87.54492;937.1252;;;;
2023/04/28 12:20:30;;;;;;;4.3;2.8;;;;;;;13.6;88.81543;937.1855;;;;
2023/04/28 12:22:59;;;;;;;2.3;1.2;;;;;;;13.33;91.5166;937.1998;;;;
2023/04/28 12:25:27;;;;;;;1.9;1.7;;;;;;;13.39;90.2207;937.1364;;;;
2023/04/28 14:45:03;;;;;;;1.5;1.3;;;;;;;13.32;92.46973;936.5776;;;;
2023/04/28 14:50:01;;;;;;;4.6;3.6;;;;;;;13.26;93.74316;936.4788;;;;
2023/04/28 14:52:28;;;;;;;7.9;6.8;;;;;;;13.1;92.9043;936.4556;;;;
2023/04/28 14:54:52;;;;;;;1.9;1.4;;;;;;;12.75;93.97656;936.5317;;;;
2023/04/28 14:57:21;;;;;;;2.6;2;;;;;;;12.58;95.66211;936.3951;;;;
2023/04/28 14:59:46;;;;;;;3.2;2.9;;;;;;;12.51;96.84863;936.4431;;;;
2023/04/28 15:02:19;;;;;;;4.2;3.9;;;;;;;12.44;96.25195;936.2915;;;;
2023/04/28 15:04:51;;;;;;;2.7;2.3;;;;;;;12.55;98.83203;936.2834;;;;
2023/04/28 15:07:16;;;;;;;226.7;141;;;;;;;12.55;98.75195;936.2034;;;;
2023/04/28 15:09:49;;;;;;;8.8;6.2;;;;;;;12.62;99.28418;936.3107;;;;
2023/04/28 15:12:19;;;;;;;4.4;1.9;;;;;;;12.64;97.6709;936.2827;;;;
2023/04/28 15:14:52;;;;;;;5.8;3.2;;;;;;;12.48;94.5625;936.2562;;;;
2023/04/28 15:17:18;;;;;;;30.5;23.5;;;;;;;12.44;94.73828;936.2476;;;;
2023/04/28 15:19:44;;;;;;;18;14.5;;;;;;;12.66;95.56543;936.1117;;;;
2023/04/28 15:22:11;;;;;;;10.2;6;;;;;;;12.7;95;936.2538;;;;
2023/04/28 15:24:36;;;;;;;39.3;22.4;;;;;;;12.94;96.51074;936.2095;;;;
2023/04/28 15:27:03;;;;;;;9.6;7.2;;;;;;;12.94;95.82227;936.0657;;;;
2023/04/28 15:29:31;;;;;;;153.4;116.7;;;;;;;12.63;95.71777;935.9313;;;;
2023/04/28 15:32:01;;;;;;;3.9;3.3;;;;;;;12.57;96.54395;936.0062;;;;
2023/04/28 15:34:32;;;;;;;3.4;2.7;;;;;;;12.67;97.82813;935.9623;;;;
2023/04/28 15:37:07;;;;;;;3.4;2.9;;;;;;;12.6;96.14844;935.9398;;;;
2023/04/28 15:39:36;;;;;;;12.2;8.7;;;;;;;12.63;96.44141;936.0375;;;;
2023/04/28 15:42:06;;;;;;;1.4;1.3;;;;;;;12.56;96.08301;936.0142;;;;
2023/04/28 15:44:31;;;;;;;40.8;27.8;;;;;;;12.44;98.29297;936.0416;;;;
2023/04/28 15:47:01;;;;;;;6.5;5.9;;;;;;;12.37;100;935.9543;;;;
2023/04/28 15:49:26;;;;;;;6.5;4.9;;;;;;;12.27;98.45898;936.0374;;;;
2023/04/28 15:51:53;;;;;;;5.3;4.7;;;;;;;12.31;99.58105;936.1772;;;;
2023/04/28 15:54:18;;;;;;;6.5;5.2;;;;;;;12.29;99.21973;936.2162;;;;
2023/04/28 15:56:47;;;;;;;14.5;10;;;;;;;12.23;100;936.253;;;;
2023/04/28 15:59:17;;;;;;;11.1;7.1;;;;;;;12.19;100;936.2319;;;;
2023/04/28 16:01:42;;;;;;;117.6;81.3;;;;;;;12.18;100;936.1314;;;;
2023/04/28 16:04:10;;;;;;;6;4.1;;;;;;;12.3;100;936.0471;;;;
2023/04/28 16:06:35;;;;;;;3.9;3.5;;;;;;;12.37;100;935.9998;;;;
2023/04/28 16:09:03;;;;;;;3;2.3;;;;;;;12.31;100;935.9712;;;;
2023/04/28 16:11:28;;;;;;;3.8;2.6;;;;;;;12.29;100;935.7444;;;;
2023/04/28 16:13:57;;;;;;;140.4;97.1;;;;;;;12.24;100;935.695;;;;
2023/04/28 16:16:23;;;;;;;4.2;2.9;;;;;;;12.51;100;935.6437;;;;
2023/04/28 16:18:50;;;;;;;77.8;52.7;;;;;;;12.6;100;935.6075;;;;
2023/04/28 16:21:16;;;;;;;30.1;20.8;;;;;;;12.51;100;935.4944;;;;
2023/04/28 16:23:43;;;;;;;58.9;36.2;;;;;;;12.55;99.6582;935.4863;;;;
2023/04/28 16:26:08;;;;;;;10.5;6.4;;;;;;;12.64;100;935.4967;;;;
2023/04/28 16:28:33;;;;;;;4.2;3.3;;;;;;;12.67;100;935.471;;;;
2023/04/28 16:31:05;;;;;;;4.6;3.8;;;;;;;12.71;100;935.5076;;;;
2023/04/28 16:33:35;;;;;;;5.5;3.5;;;;;;;12.68;100;935.4791;;;;
2023/04/28 16:36:00;;;;;;;4.6;3;;;;;;;12.59;100;935.4678;;;;
2023/04/28 16:38:33;;;;;;;13.3;10.6;;;;;;;12.77;99.79004;935.426;;;;
2023/04/28 16:41:05;;;;;;;1.9;1.7;;;;;;;12.67;98.86035;935.3816;;;;
2023/04/28 16:43:37;;;;;;;11.5;7.9;;;;;;;12.81;99.25879;935.3699;;;;
2023/04/28 16:46:02;;;;;;;22.7;16.2;;;;;;;12.6;98.99121;935.4127;;;;
2023/04/28 16:48:28;;;;;;;3.6;2.8;;;;;;;12.46;98.9375;935.3995;;;;
2023/04/28 16:50:53;;;;;;;4;3.4;;;;;;;12.51;99.5;935.4089;;;;